Savage Elevate — WDJ7728 — position and weather

sailwx.info

Track history (hours):
 
Tides and Currents Weather Stations Pressure Air Temp Water Temp Dewpoint Dewpoint Depression Visibility Wind Speed Wind Dir Waves Ship Positions

Savage Elevate

Owner: Savage Inland Marine, Gibson, LA. More information available from US FCC via Universal Licensing System and Coast Guard Vessel Documentation Center.

Last reported at 2018-Jun-24 16:30 UTC. Time now 2018-Jun-24 16:41 UTC.
Position N 29°08' W 095°10'.

Length 24 m; draft 3 m.

Type: Tug. MMSI: 367583130.

Date/timePositionNaut miles runAvg speedWind from/ knotsBaromVisibWave heightAir tempDewpointWater temp
2018-Jun-24 16:30N 29°08' W 095°10'3 6.2
2018-Jun-24 16:00N 29°10' W 095°08'3 6.7
2018-Jun-24 15:30N 29°12' W 095°04'3 6.6
2018-Jun-24 15:00N 29°14' W 095°02'3 6.6
2018-Jun-24 14:30N 29°16' W 094°59'3 6.4
2018-Jun-24 14:00N 29°17' W 094°56'13 5.0
2018-Jun-24 11:26N 29°30' W 094°52'6 6.7
2018-Jun-24 10:34N 29°35' W 094°56'1 7.5
2018-Jun-24 10:26N 29°36' W 094°57'3 7.5
2018-Jun-24 09:59N 29°39' W 094°58'9 0.4
2018-Jun-23 12:10N 29°46' W 095°05'0 0.0
2018-Jun-23 11:53N 29°46' W 095°05'0 0.0
2018-Jun-23 11:29N 29°46' W 095°05'0 0.0
2018-Jun-23 10:53N 29°46' W 095°05'0 0.0
2018-Jun-23 10:28N 29°46' W 095°05'0 0.0
2018-Jun-23 10:00N 29°46' W 095°05'0 0.0
2018-Jun-23 09:19N 29°46' W 095°05'0 0.0
2018-Jun-23 08:56N 29°46' W 095°05'0 0.0
2018-Jun-23 08:24N 29°46' W 095°05'0 0.0
2018-Jun-23 07:59N 29°46' W 095°05'0 0.0
2018-Jun-23 07:26N 29°46' W 095°05'0 0.0
2018-Jun-23 06:58N 29°46' W 095°05'1 3.1
2018-Jun-23 06:30N 29°46' W 095°06'0 0.9
2018-Jun-23 06:01N 29°45' W 095°06'2 3.2
2018-Jun-23 05:30N 29°47' W 095°05'0 0.6
2018-Jun-23 04:59N 29°46' W 095°05'2 4.0
2018-Jun-23 04:30N 29°45' W 095°04'3 5.3
2018-Jun-23 04:01N 29°43' W 095°01'3 5.1
2018-Jun-23 03:31N 29°41' W 094°59'3 5.8
2018-Jun-23 03:00N 29°39' W 094°58'3 6.2
2018-Jun-23 02:30N 29°36' W 094°57'3 6.3
2018-Jun-23 02:00N 29°33' W 094°55'3 6.0
2018-Jun-23 01:28N 29°31' W 094°53'3 5.8
2018-Jun-23 00:56N 29°28' W 094°51'2 5.5
2018-Jun-23 00:31N 29°26' W 094°50'3 5.5
2018-Jun-23 00:00N 29°23' W 094°49'2 4.3
2018-Jun-22 23:30N 29°23' W 094°46'4 6.0
2018-Jun-22 22:55N 29°26' W 094°43'3 6.0
2018-Jun-22 22:30N 29°27' W 094°41'3 5.6
2018-Jun-22 21:55N 29°29' W 094°38'2 5.7
2018-Jun-22 21:29N 29°29' W 094°35'5 5.6
2018-Jun-22 20:32N 29°32' W 094°29'2 3.5
2018-Jun-22 19:51N 29°34' W 094°28'2 5.4
2018-Jun-22 19:28N 29°34' W 094°25'2 4.7
2018-Jun-22 19:00N 29°36' W 094°24'3 4.9
2018-Jun-22 18:28N 29°37' W 094°21'3 5.3
2018-Jun-22 17:58N 29°38' W 094°19'2 5.2
2018-Jun-22 17:30N 29°39' W 094°16'3 5.4
2018-Jun-22 17:00N 29°40' W 094°13'3 5.2
2018-Jun-22 16:30N 29°41' W 094°11'3 5.0
2018-Jun-22 16:00N 29°42' W 094°08'3 5.1
2018-Jun-22 15:30N 29°44' W 094°06'3 5.2
2018-Jun-22 15:00N 29°46' W 094°03'3 5.2
2018-Jun-22 14:30N 29°47' W 094°01'3 5.2
2018-Jun-22 14:00N 29°49' W 093°59'3 5.1
2018-Jun-22 13:30N 29°51' W 093°57'3 6.9
2018-Jun-22 13:00N 29°54' W 093°54'3 6.9
2018-Jun-22 12:30N 29°56' W 093°52'2 4.2
2018-Jun-22 12:00N 29°58' W 093°51'0 0.0
2018-Jun-22 11:30N 29°58' W 093°51'0 0.2
2018-Jun-22 11:01N 29°58' W 093°51'0 0.3
2018-Jun-22 10:31N 29°58' W 093°51'1 1.5
2018-Jun-22 10:00N 29°59' W 093°52'2 3.9
2018-Jun-22 09:30N 29°59' W 093°54'2 4.6
2018-Jun-22 09:00N 29°60' W 093°56'2 3.9
2018-Jun-22 08:30N 30°01' W 093°58'1 1.5
2018-Jun-22 08:00N 30°01' W 093°59'0 0.0
2018-Jun-22 07:30N 30°01' W 093°59'0 0.0
2018-Jun-22 07:00N 30°01' W 093°59'0 0.0
2018-Jun-22 06:30N 30°01' W 093°59'0 0.0
2018-Jun-22 06:00N 30°01' W 093°59'0 0.0
2018-Jun-22 05:30N 30°01' W 093°59'0 0.0
2018-Jun-22 05:00N 30°01' W 093°59'0 0.0
2018-Jun-22 04:30N 30°01' W 093°59'0 0.0
2018-Jun-22 04:00N 30°01' W 093°59'0 0.0
2018-Jun-22 03:30N 30°01' W 093°59'0 0.0
2018-Jun-22 03:00N 30°01' W 093°59'0 0.0
2018-Jun-22 02:30N 30°01' W 093°59'0 0.0
2018-Jun-22 02:00N 30°01' W 093°59'0 0.0
2018-Jun-22 01:30N 30°01' W 093°59'0 0.0
2018-Jun-22 01:00N 30°01' W 093°59'0 0.0
2018-Jun-22 00:30N 30°01' W 093°59'0 0.0
2018-Jun-22 00:00N 30°01' W 093°59'0 0.0
2018-Jun-21 23:30N 30°01' W 093°59'0 0.0
2018-Jun-21 23:00N 30°01' W 093°59'0 0.0
2018-Jun-21 22:30N 30°01' W 093°59'0 0.0
2018-Jun-21 22:00N 30°01' W 093°59'0 0.0
2018-Jun-21 21:30N 30°01' W 093°59'1 2.4
2018-Jun-21 21:00N 30°01' W 093°58'3 6.1
2018-Jun-21 20:30N 29°60' W 093°55'2 3.3
2018-Jun-21 20:00N 29°59' W 093°53'2 3.7
2018-Jun-21 19:30N 29°58' W 093°51'0 0.0
2018-Jun-21 19:00N 29°58' W 093°51'3 5.2
2018-Jun-21 18:30N 29°56' W 093°52'4 7.0
2018-Jun-21 18:00N 29°53' W 093°55'4 7.3
2018-Jun-21 17:30N 29°50' W 093°57'0 0.6
2018-Jun-21 17:00N 29°50' W 093°57'0 0.0
2018-Jun-21 16:30N 29°50' W 093°57'0 0.0
2018-Jun-21 16:00N 29°50' W 093°57'0 0.0
2018-Jun-21 15:30N 29°50' W 093°57'0 0.3
2018-Jun-21 15:00N 29°50' W 093°57'3 5.9
2018-Jun-21 14:30N 29°48' W 094°00'0 0.3
2018-Jun-21 14:00N 29°48' W 094°00'3 6.3
2018-Jun-21 13:30N 29°50' W 093°57'4 8.4
2018-Jun-21 13:00N 29°53' W 093°55'4 8.7
2018-Jun-21 12:30N 29°57' W 093°52'3 7.0
2018-Jun-21 12:00N 29°59' W 093°49'4 8.3
2018-Jun-21 11:30N 30°01' W 093°45'3 6.9
2018-Jun-21 11:00N 30°04' W 093°41'3 6.7
2018-Jun-21 10:30N 30°04' W 093°38'3 6.0
2018-Jun-21 10:00N 30°04' W 093°34'3 5.2
2018-Jun-21 09:30N 30°04' W 093°31'3 5.4
2018-Jun-21 09:00N 30°04' W 093°28'3 5.5
2018-Jun-21 08:30N 30°04' W 093°25'3 5.3
2018-Jun-21 08:00N 30°04' W 093°22'2 4.1
2018-Jun-21 07:30N 30°05' W 093°20'2 4.6
2018-Jun-21 07:00N 30°07' W 093°20'3 6.5
2018-Jun-21 06:30N 30°10' W 093°19'3 6.8
2018-Jun-21 06:00N 30°12' W 093°16'2 4.1
2018-Jun-21 05:30N 30°14' W 093°15'1 2.1
2018-Jun-21 05:00N 30°15' W 093°14'1 2.7
2018-Jun-21 04:30N 30°15' W 093°12'0 0.3
2018-Jun-21 04:00N 30°15' W 093°12'0 0.0
2018-Jun-21 03:30N 30°15' W 093°12'0 0.0
2018-Jun-21 03:00N 30°15' W 093°12'0 0.0
2018-Jun-21 02:30N 30°15' W 093°12'0 0.0
2018-Jun-21 02:00N 30°15' W 093°12'0 0.0
2018-Jun-21 01:29N 30°15' W 093°12'0 0.0
2018-Jun-21 01:00N 30°15' W 093°12'0 0.0
2018-Jun-21 00:30N 30°15' W 093°12'0 0.0
2018-Jun-21 00:00N 30°15' W 093°12'0 0.0
2018-Jun-20 23:30N 30°15' W 093°12'0 0.0
2018-Jun-20 23:00N 30°15' W 093°12'0 0.0
2018-Jun-20 22:30N 30°15' W 093°12'0 0.0
2018-Jun-20 22:00N 30°15' W 093°12'0 0.0
2018-Jun-20 21:30N 30°15' W 093°12'0 0.0
2018-Jun-20 21:00N 30°15' W 093°12'0 0.0
2018-Jun-20 20:30N 30°15' W 093°12'0 0.0
2018-Jun-20 20:00N 30°15' W 093°12'0 0.0
2018-Jun-20 19:30N 30°15' W 093°12'0 0.0
2018-Jun-20 19:00N 30°15' W 093°12'0 0.0
2018-Jun-20 18:30N 30°15' W 093°12'0 0.0
2018-Jun-20 18:00N 30°15' W 093°12'0 0.0
2018-Jun-20 17:30N 30°15' W 093°12'0 0.0
2018-Jun-20 16:59N 30°15' W 093°12'0 0.0
2018-Jun-20 16:30N 30°15' W 093°12'0 0.0
2018-Jun-20 16:00N 30°15' W 093°12'0 0.0
2018-Jun-20 15:30N 30°15' W 093°12'0 0.0
2018-Jun-20 14:58N 30°15' W 093°12'0 0.0
2018-Jun-20 14:30N 30°15' W 093°12'0 0.0
2018-Jun-20 14:00N 30°15' W 093°12'0 0.0
2018-Jun-20 13:28N 30°15' W 093°12'0 0.0
2018-Jun-20 13:00N 30°15' W 093°12'0 0.0
2018-Jun-20 12:29N 30°15' W 093°12'0 0.0
2018-Jun-20 12:00N 30°15' W 093°12'0 0.0
2018-Jun-20 11:30N 30°15' W 093°12'0 0.0
2018-Jun-20 11:00N 30°15' W 093°12'0 0.0
2018-Jun-20 10:29N 30°15' W 093°12'0 0.0
2018-Jun-20 10:00N 30°15' W 093°12'0 0.0
2018-Jun-20 09:30N 30°15' W 093°12'0 0.0
2018-Jun-20 09:00N 30°15' W 093°12'0 0.0
2018-Jun-20 08:29N 30°15' W 093°12'0 0.0
2018-Jun-20 07:56N 30°15' W 093°12'0 0.0
2018-Jun-20 07:30N 30°15' W 093°12'0 0.0
2018-Jun-20 07:00N 30°15' W 093°12'0 0.0
2018-Jun-20 06:30N 30°15' W 093°12'0 0.0
2018-Jun-20 06:00N 30°15' W 093°12'0 0.0
2018-Jun-20 05:30N 30°15' W 093°12'0 0.0
2018-Jun-20 05:00N 30°15' W 093°12'0 0.1
2018-Jun-20 04:30N 30°15' W 093°12'1 2.4
2018-Jun-20 04:00N 30°15' W 093°14'3 5.0
2018-Jun-20 03:30N 30°13' W 093°15'3 6.8
2018-Jun-20 03:00N 30°11' W 093°18'3 6.8
2018-Jun-20 02:30N 30°08' W 093°20'3 6.8
2018-Jun-20 02:00N 30°05' W 093°20'4 7.3
2018-Jun-20 01:30N 30°04' W 093°24'4 7.9
2018-Jun-20 01:00N 30°04' W 093°29'4 7.9
2018-Jun-20 00:30N 30°04' W 093°34'1 2.6
2018-Jun-20 00:00N 30°04' W 093°35'4 7.8
2018-Jun-19 23:30N 30°04' W 093°40'4 7.4
2018-Jun-19 23:00N 30°03' W 093°44'4 7.1
2018-Jun-19 22:30N 29°60' W 093°46'4 7.4
2018-Jun-19 22:00N 29°59' W 093°50'1 2.1
2018-Jun-19 21:30N 29°58' W 093°51'3 6.2
2018-Jun-19 21:00N 29°60' W 093°55'0 0.7
2018-Jun-19 20:30N 29°60' W 093°55'0 0.0
2018-Jun-19 20:00N 29°60' W 093°55'0 0.0
2018-Jun-19 19:30N 29°60' W 093°55'0 0.0
2018-Jun-19 19:00N 29°60' W 093°55'0 0.0
2018-Jun-19 18:30N 29°60' W 093°55'0 0.0
2018-Jun-19 18:00N 29°60' W 093°55'0 0.0
2018-Jun-19 17:30N 29°60' W 093°55'0 0.0
2018-Jun-19 17:00N 29°60' W 093°55'0 0.0
2018-Jun-19 16:30N 29°60' W 093°55'0 0.0
2018-Jun-19 16:00N 29°60' W 093°55'0 0.0
2018-Jun-19 15:30N 29°60' W 093°55'0 0.0
2018-Jun-19 15:00N 29°60' W 093°55'1 2.6
2018-Jun-19 14:30N 29°59' W 093°54'3 5.6
2018-Jun-19 14:00N 29°58' W 093°51'0 0.0
2018-Jun-19 13:30N 29°58' W 093°51'0 0.0
2018-Jun-19 13:00N 29°58' W 093°51'0 0.0
2018-Jun-19 12:30N 29°58' W 093°51'0 0.0
2018-Jun-19 12:00N 29°58' W 093°51'0 0.0
2018-Jun-19 11:30N 29°58' W 093°51'0 0.0
2018-Jun-19 11:00N 29°58' W 093°51'0 0.0
2018-Jun-19 10:30N 29°58' W 093°51'0 0.0
2018-Jun-19 10:00N 29°58' W 093°51'1 2.2
2018-Jun-19 09:30N 29°59' W 093°52'3 5.9
2018-Jun-19 09:00N 29°60' W 093°55'1 1.2
2018-Jun-19 08:30N 29°59' W 093°56'3 5.7
2018-Jun-19 08:00N 30°01' W 093°59'0 0.9
2018-Jun-19 07:30N 30°01' W 093°59'0 0.0
2018-Jun-19 07:00N 30°01' W 093°59'0 0.0
2018-Jun-19 06:30N 30°01' W 093°59'0 0.0
2018-Jun-19 06:00N 30°01' W 093°59'0 0.0
2018-Jun-19 05:30N 30°01' W 093°59'0 0.0
2018-Jun-19 05:00N 30°01' W 093°59'0 0.0
2018-Jun-19 04:30N 30°01' W 093°59'0 0.0
2018-Jun-19 04:00N 30°01' W 093°59'0 0.0
2018-Jun-19 03:30N 30°01' W 093°59'0 0.0
2018-Jun-19 03:00N 30°01' W 093°59'0 0.0
2018-Jun-19 02:30N 30°01' W 093°59'0 0.0
2018-Jun-19 02:00N 30°01' W 093°59'0 0.0
2018-Jun-19 01:30N 30°01' W 093°59'0 0.0
2018-Jun-19 01:00N 30°01' W 093°59'0 0.0
2018-Jun-19 00:30N 30°01' W 093°59'0 0.9
2018-Jun-19 00:00N 30°01' W 093°59'0 0.2
2018-Jun-18 23:30N 30°01' W 093°59'0 0.1
2018-Jun-18 23:00N 30°01' W 093°59'0 0.0
2018-Jun-18 22:30N 30°01' W 093°59'0 0.0
2018-Jun-18 22:00N 30°01' W 093°59'0 0.0
2018-Jun-18 21:30N 30°01' W 093°59'0 0.0
2018-Jun-18 21:00N 30°01' W 093°59'0 0.0
2018-Jun-18 20:30N 30°01' W 093°59'0 0.0
2018-Jun-18 20:00N 30°01' W 093°59'0 0.0
2018-Jun-18 19:30N 30°01' W 093°59'0 0.0
2018-Jun-18 19:00N 30°01' W 093°59'0 0.0
2018-Jun-18 18:30N 30°01' W 093°59'0 0.0
2018-Jun-18 18:00N 30°01' W 093°59'0 0.0
2018-Jun-18 17:30N 30°01' W 093°59'0 0.0
2018-Jun-18 16:59N 30°01' W 093°59'0 0.0
2018-Jun-18 16:30N 30°01' W 093°59'0 0.0
2018-Jun-18 16:00N 30°01' W 093°59'0 0.0
2018-Jun-18 15:30N 30°01' W 093°59'0 0.0
2018-Jun-18 14:59N 30°01' W 093°59'0 0.0
2018-Jun-18 14:27N 30°01' W 093°59'0 0.0
2018-Jun-18 14:00N 30°01' W 093°59'0 0.0
2018-Jun-18 13:25N 30°01' W 093°59'0 0.0
2018-Jun-18 13:00N 30°01' W 093°59'0 0.0
2018-Jun-18 12:30N 30°01' W 093°59'0 0.0
2018-Jun-18 12:00N 30°01' W 093°59'0 0.9
2018-Jun-18 11:30N 30°01' W 093°59'2 4.7
2018-Jun-18 11:00N 29°60' W 093°57'3 6.2
2018-Jun-18 10:30N 29°59' W 093°53'2 4.5
2018-Jun-18 10:00N 29°57' W 093°52'3 5.8
2018-Jun-18 09:30N 29°55' W 093°53'3 5.4
2018-Jun-18 09:00N 29°53' W 093°55'3 5.1
2018-Jun-18 08:30N 29°50' W 093°57'2 4.6
2018-Jun-18 08:00N 29°49' W 093°59'3 5.5
2018-Jun-18 07:30N 29°47' W 094°01'3 5.5
2018-Jun-18 07:00N 29°45' W 094°04'3 5.5
2018-Jun-18 06:30N 29°44' W 094°06'3 5.5
2018-Jun-18 06:00N 29°42' W 094°09'3 5.1
2018-Jun-18 05:30N 29°41' W 094°12'2 4.6
2018-Jun-18 04:59N 29°40' W 094°14'2 5.0
2018-Jun-18 04:30N 29°39' W 094°16'2 4.9
2018-Jun-18 04:00N 29°38' W 094°19'5 4.6
2018-Jun-18 02:59N 29°36' W 094°24'18 5.5
2018-Jun-17 23:37N 29°26' W 094°42'1 6.2
2018-Jun-17 23:26N 29°26' W 094°43'2 5.0
2018-Jun-17 22:58N 29°24' W 094°45'3 6.1
2018-Jun-17 22:30N 29°22' W 094°47'3 5.9
2018-Jun-17 22:00N 29°19' W 094°47'1 2.8
2018-Jun-17 21:30N 29°19' W 094°49'0 0.1
2018-Jun-17 21:00N 29°18' W 094°49'0 0.0
2018-Jun-17 20:30N 29°18' W 094°49'0 0.0
2018-Jun-17 19:58N 29°18' W 094°49'0 0.0
2018-Jun-17 19:30N 29°18' W 094°49'0 0.0
2018-Jun-17 19:00N 29°18' W 094°49'0 0.0
2018-Jun-17 18:30N 29°18' W 094°49'0 0.0
2018-Jun-17 18:00N 29°18' W 094°49'0 0.2
2018-Jun-17 17:30N 29°18' W 094°49'0 0.0
2018-Jun-17 16:59N 29°18' W 094°49'0 0.0
2018-Jun-17 16:30N 29°18' W 094°49'0 0.0
2018-Jun-17 16:00N 29°18' W 094°49'0 0.0
2018-Jun-17 15:30N 29°18' W 094°49'0 0.0
2018-Jun-17 15:00N 29°18' W 094°49'0 0.0
2018-Jun-17 14:30N 29°18' W 094°49'0 0.0
2018-Jun-17 14:00N 29°18' W 094°49'0 0.0
2018-Jun-17 13:29N 29°18' W 094°49'0 0.0
2018-Jun-17 12:59N 29°18' W 094°49'0 0.0
2018-Jun-17 03:24N 29°18' W 094°49'0 0.0
2018-Jun-17 03:00N 29°18' W 094°49'0 0.0
2018-Jun-17 02:30N 29°18' W 094°49'0 0.0
2018-Jun-17 02:00N 29°18' W 094°49'0 0.0
2018-Jun-17 01:30N 29°18' W 094°49'0 0.0
2018-Jun-17 01:00N 29°18' W 094°49'0 0.0
2018-Jun-17 00:30N 29°18' W 094°49'0 0.0
2018-Jun-17 00:00N 29°18' W 094°49'0 0.0
2018-Jun-16 23:30N 29°18' W 094°49'0 0.4
2018-Jun-16 23:00N 29°19' W 094°49'0 0.4
2018-Jun-16 22:30N 29°18' W 094°49'0 0.3
2018-Jun-16 22:00N 29°19' W 094°49'0 0.2
2018-Jun-16 21:30N 29°18' W 094°49'0 0.1
2018-Jun-16 21:00N 29°18' W 094°49'0 0.2
2018-Jun-16 20:30N 29°18' W 094°49'0 0.0
2018-Jun-16 20:00N 29°18' W 094°49'0 0.0
2018-Jun-16 19:29N 29°18' W 094°49'0 0.0
2018-Jun-16 19:00N 29°18' W 094°49'0 0.0
2018-Jun-16 18:30N 29°18' W 094°49'0 0.0
2018-Jun-16 18:00N 29°18' W 094°49'0 0.0
2018-Jun-16 17:30N 29°18' W 094°49'1 2.5
2018-Jun-16 17:00N 29°19' W 094°48'1 1.7
2018-Jun-16 16:29N 29°19' W 094°47'0 0.0
2018-Jun-16 16:00N 29°19' W 094°47'0 0.0
2018-Jun-16 15:30N 29°19' W 094°47'1 2.7
2018-Jun-16 15:00N 29°19' W 094°48'1 1.4
2018-Jun-16 14:30N 29°19' W 094°49'3 5.5
2018-Jun-16 14:00N 29°20' W 094°47'2 4.5
2018-Jun-16 13:30N 29°23' W 094°47'8 5.1
2018-Jun-16 11:57N 29°28' W 094°40'10 5.2
2018-Jun-16 10:01N 29°32' W 094°29'2 5.8
2018-Jun-16 09:38N 29°34' W 094°28'1 6.0
2018-Jun-16 09:28N 29°34' W 094°27'2 4.7
2018-Jun-16 09:00N 29°35' W 094°25'2 3.9
2018-Jun-16 08:30N 29°36' W 094°23'1 2.6
2018-Jun-16 08:00N 29°37' W 094°22'3 5.4
2018-Jun-16 07:26N 29°38' W 094°18'2 5.4
2018-Jun-16 07:00N 29°39' W 094°16'3 5.3
2018-Jun-16 06:31N 29°40' W 094°13'3 5.3
2018-Jun-16 06:01N 29°41' W 094°10'3 5.1
2018-Jun-16 05:30N 29°43' W 094°08'3 5.3
2018-Jun-16 05:01N 29°44' W 094°06'3 5.1
2018-Jun-16 04:30N 29°46' W 094°03'2 5.0
2018-Jun-16 04:01N 29°47' W 094°01'3 5.3
2018-Jun-16 03:30N 29°49' W 093°59'1 2.1
2018-Jun-16 03:01N 29°50' W 093°58'2 4.6
2018-Jun-16 02:31N 29°48' W 093°60'3 6.8
2018-Jun-16 02:01N 29°46' W 094°03'3 6.5
2018-Jun-16 01:31N 29°44' W 094°06'3 6.3
2018-Jun-16 01:01N 29°42' W 094°08'3 6.0
2018-Jun-16 00:30N 29°41' W 094°12'3 6.2
2018-Jun-16 00:00N 29°40' W 094°15'3 6.0
2018-Jun-15 23:29N 29°38' W 094°18'3 6.0
2018-Jun-15 23:00N 29°37' W 094°21'3 5.7
2018-Jun-15 22:30N 29°36' W 094°24'1 2.8
2018-Jun-15 21:59N 29°36' W 094°22'3 5.8
2018-Jun-15 21:30N 29°37' W 094°20'3 5.7
2018-Jun-15 20:59N 29°39' W 094°17'3 5.8
2018-Jun-15 20:28N 29°40' W 094°13'3 5.9
2018-Jun-15 20:00N 29°41' W 094°11'3 5.7
2018-Jun-15 19:30N 29°43' W 094°08'3 6.0
2018-Jun-15 19:01N 29°44' W 094°05'3 5.8
2018-Jun-15 18:31N 29°46' W 094°02'3 5.8
2018-Jun-15 18:00N 29°48' W 094°00'2 4.2
2018-Jun-15 17:31N 29°49' W 093°58'3 6.3
2018-Jun-15 17:01N 29°52' W 093°56'3 6.5
2018-Jun-15 16:30N 29°55' W 093°54'3 6.6
2018-Jun-15 16:00N 29°57' W 093°52'1 1.9
2018-Jun-15 15:30N 29°58' W 093°51'3 6.4
2018-Jun-15 15:00N 29°59' W 093°55'1 1.3
2018-Jun-15 14:31N 29°60' W 093°55'3 6.0
2018-Jun-15 14:00N 29°59' W 093°52'4 7.7
2018-Jun-15 13:31N 29°55' W 093°53'4 8.4
2018-Jun-15 13:00N 29°52' W 093°56'0 0.0
2018-Jun-15 12:31N 29°52' W 093°56'0 0.0
2018-Jun-15 12:00N 29°52' W 093°56'0 0.0
2018-Jun-15 11:31N 29°52' W 093°56'0 0.0
2018-Jun-15 10:59N 29°52' W 093°56'0 0.0
2018-Jun-15 10:31N 29°52' W 093°56'0 0.0
2018-Jun-15 10:00N 29°52' W 093°56'0 0.0
2018-Jun-15 09:31N 29°52' W 093°56'0 0.0
2018-Jun-15 09:00N 29°52' W 093°56'0 0.0
2018-Jun-15 08:31N 29°52' W 093°56'0 0.0
2018-Jun-15 08:00N 29°52' W 093°56'0 0.0
2018-Jun-15 07:31N 29°52' W 093°56'0 0.0
2018-Jun-15 07:00N 29°52' W 093°56'0 0.0
2018-Jun-15 06:31N 29°52' W 093°56'0 0.0
2018-Jun-15 06:01N 29°52' W 093°56'0 0.1
2018-Jun-15 05:30N 29°52' W 093°56'2 3.2
2018-Jun-15 05:01N 29°50' W 093°57'2 3.0
2018-Jun-15 04:31N 29°49' W 093°58'0 0.0
2018-Jun-15 04:00N 29°49' W 093°58'0 0.0
2018-Jun-15 03:23N 29°49' W 093°58'0 0.0
2018-Jun-15 03:00N 29°49' W 093°58'0 0.0
2018-Jun-15 02:29N 29°49' W 093°58'0 0.1
2018-Jun-15 02:00N 29°49' W 093°58'1 2.1
2018-Jun-15 01:30N 29°49' W 093°59'3 6.0
2018-Jun-15 01:00N 29°47' W 094°02'3 5.8
2018-Jun-15 00:30N 29°45' W 094°05'3 5.7
2018-Jun-15 00:01N 29°43' W 094°07'3 5.5
2018-Jun-14 23:30N 29°41' W 094°10'3 5.4
2018-Jun-14 23:00N 29°41' W 094°13'3 5.4
2018-Jun-14 22:30N 29°39' W 094°15'3 5.2
2018-Jun-14 22:00N 29°38' W 094°18'3 5.3
2018-Jun-14 21:30N 29°37' W 094°21'7 4.6
2018-Jun-14 20:00N 29°34' W 094°28'8 5.3
2018-Jun-14 18:25N 29°29' W 094°36'2 5.0
2018-Jun-14 17:58N 29°28' W 094°38'4 5.5
2018-Jun-14 17:18N 29°26' W 094°42'2 6.1
2018-Jun-14 16:54N 29°25' W 094°44'2 5.5
2018-Jun-14 16:30N 29°23' W 094°46'  
Track history (hours):
 
Tides and Currents Weather Stations Pressure Air Temp Water Temp Dewpoint Dewpoint Depression Visibility Wind Speed Wind Dir Waves Ship Positions

Savage Elevate

Owner: Savage Inland Marine, Gibson, LA. More information available from US FCC via Universal Licensing System and Coast Guard Vessel Documentation Center.

Last reported at 2018-Jun-24 16:30 UTC. Time now 2018-Jun-24 16:41 UTC.
Position N 29°08' W 095°10'.

Length 24 m; draft 3 m.

Type: Tug. MMSI: 367583130.

Date/timePositionNaut miles runAvg speedWind from/ knotsBaromVisibWave heightAir tempDewpointWater temp
2018-Jun-24 16:30N 29°08' W 095°10'3 6.2
2018-Jun-24 16:00N 29°10' W 095°08'3 6.7
2018-Jun-24 15:30N 29°12' W 095°04'3 6.6
2018-Jun-24 15:00N 29°14' W 095°02'3 6.6
2018-Jun-24 14:30N 29°16' W 094°59'3 6.4
2018-Jun-24 14:00N 29°17' W 094°56'13 5.0
2018-Jun-24 11:26N 29°30' W 094°52'6 6.7
2018-Jun-24 10:34N 29°35' W 094°56'1 7.5
2018-Jun-24 10:26N 29°36' W 094°57'3 7.5
2018-Jun-24 09:59N 29°39' W 094°58'9 0.4
2018-Jun-23 12:10N 29°46' W 095°05'0 0.0
2018-Jun-23 11:53N 29°46' W 095°05'0 0.0
2018-Jun-23 11:29N 29°46' W 095°05'0 0.0
2018-Jun-23 10:53N 29°46' W 095°05'0 0.0
2018-Jun-23 10:28N 29°46' W 095°05'0 0.0
2018-Jun-23 10:00N 29°46' W 095°05'0 0.0
2018-Jun-23 09:19N 29°46' W 095°05'0 0.0
2018-Jun-23 08:56N 29°46' W 095°05'0 0.0
2018-Jun-23 08:24N 29°46' W 095°05'0 0.0
2018-Jun-23 07:59N 29°46' W 095°05'0 0.0
2018-Jun-23 07:26N 29°46' W 095°05'0 0.0
2018-Jun-23 06:58N 29°46' W 095°05'1 3.1
2018-Jun-23 06:30N 29°46' W 095°06'0 0.9
2018-Jun-23 06:01N 29°45' W 095°06'2 3.2
2018-Jun-23 05:30N 29°47' W 095°05'0 0.6
2018-Jun-23 04:59N 29°46' W 095°05'2 4.0
2018-Jun-23 04:30N 29°45' W 095°04'3 5.3
2018-Jun-23 04:01N 29°43' W 095°01'3 5.1
2018-Jun-23 03:31N 29°41' W 094°59'3 5.8
2018-Jun-23 03:00N 29°39' W 094°58'3 6.2
2018-Jun-23 02:30N 29°36' W 094°57'3 6.3
2018-Jun-23 02:00N 29°33' W 094°55'3 6.0
2018-Jun-23 01:28N 29°31' W 094°53'3 5.8
2018-Jun-23 00:56N 29°28' W 094°51'2 5.5
2018-Jun-23 00:31N 29°26' W 094°50'3 5.5
2018-Jun-23 00:00N 29°23' W 094°49'2 4.3
2018-Jun-22 23:30N 29°23' W 094°46'4 6.0
2018-Jun-22 22:55N 29°26' W 094°43'3 6.0
2018-Jun-22 22:30N 29°27' W 094°41'3 5.6
2018-Jun-22 21:55N 29°29' W 094°38'2 5.7
2018-Jun-22 21:29N 29°29' W 094°35'5 5.6
2018-Jun-22 20:32N 29°32' W 094°29'2 3.5
2018-Jun-22 19:51N 29°34' W 094°28'2 5.4
2018-Jun-22 19:28N 29°34' W 094°25'2 4.7
2018-Jun-22 19:00N 29°36' W 094°24'3 4.9
2018-Jun-22 18:28N 29°37' W 094°21'3 5.3
2018-Jun-22 17:58N 29°38' W 094°19'2 5.2
2018-Jun-22 17:30N 29°39' W 094°16'3 5.4
2018-Jun-22 17:00N 29°40' W 094°13'3 5.2
2018-Jun-22 16:30N 29°41' W 094°11'3 5.0
2018-Jun-22 16:00N 29°42' W 094°08'3 5.1
2018-Jun-22 15:30N 29°44' W 094°06'3 5.2
2018-Jun-22 15:00N 29°46' W 094°03'3 5.2
2018-Jun-22 14:30N 29°47' W 094°01'3 5.2
2018-Jun-22 14:00N 29°49' W 093°59'3 5.1
2018-Jun-22 13:30N 29°51' W 093°57'3 6.9
2018-Jun-22 13:00N 29°54' W 093°54'3 6.9
2018-Jun-22 12:30N 29°56' W 093°52'2 4.2
2018-Jun-22 12:00N 29°58' W 093°51'0 0.0
2018-Jun-22 11:30N 29°58' W 093°51'0 0.2
2018-Jun-22 11:01N 29°58' W 093°51'0 0.3
2018-Jun-22 10:31N 29°58' W 093°51'1 1.5
2018-Jun-22 10:00N 29°59' W 093°52'2 3.9
2018-Jun-22 09:30N 29°59' W 093°54'2 4.6
2018-Jun-22 09:00N 29°60' W 093°56'2 3.9
2018-Jun-22 08:30N 30°01' W 093°58'1 1.5
2018-Jun-22 08:00N 30°01' W 093°59'0 0.0
2018-Jun-22 07:30N 30°01' W 093°59'0 0.0
2018-Jun-22 07:00N 30°01' W 093°59'0 0.0
2018-Jun-22 06:30N 30°01' W 093°59'0 0.0
2018-Jun-22 06:00N 30°01' W 093°59'0 0.0
2018-Jun-22 05:30N 30°01' W 093°59'0 0.0
2018-Jun-22 05:00N 30°01' W 093°59'0 0.0
2018-Jun-22 04:30N 30°01' W 093°59'0 0.0
2018-Jun-22 04:00N 30°01' W 093°59'0 0.0
2018-Jun-22 03:30N 30°01' W 093°59'0 0.0
2018-Jun-22 03:00N 30°01' W 093°59'0 0.0
2018-Jun-22 02:30N 30°01' W 093°59'0 0.0
2018-Jun-22 02:00N 30°01' W 093°59'0 0.0
2018-Jun-22 01:30N 30°01' W 093°59'0 0.0
2018-Jun-22 01:00N 30°01' W 093°59'0 0.0
2018-Jun-22 00:30N 30°01' W 093°59'0 0.0
2018-Jun-22 00:00N 30°01' W 093°59'0 0.0
2018-Jun-21 23:30N 30°01' W 093°59'0 0.0
2018-Jun-21 23:00N 30°01' W 093°59'0 0.0
2018-Jun-21 22:30N 30°01' W 093°59'0 0.0
2018-Jun-21 22:00N 30°01' W 093°59'0 0.0
2018-Jun-21 21:30N 30°01' W 093°59'1 2.4
2018-Jun-21 21:00N 30°01' W 093°58'3 6.1
2018-Jun-21 20:30N 29°60' W 093°55'2 3.3
2018-Jun-21 20:00N 29°59' W 093°53'2 3.7
2018-Jun-21 19:30N 29°58' W 093°51'0 0.0
2018-Jun-21 19:00N 29°58' W 093°51'3 5.2
2018-Jun-21 18:30N 29°56' W 093°52'4 7.0
2018-Jun-21 18:00N 29°53' W 093°55'4 7.3
2018-Jun-21 17:30N 29°50' W 093°57'0 0.6
2018-Jun-21 17:00N 29°50' W 093°57'0 0.0
2018-Jun-21 16:30N 29°50' W 093°57'0 0.0
2018-Jun-21 16:00N 29°50' W 093°57'0 0.0
2018-Jun-21 15:30N 29°50' W 093°57'0 0.3
2018-Jun-21 15:00N 29°50' W 093°57'3 5.9
2018-Jun-21 14:30N 29°48' W 094°00'0 0.3
2018-Jun-21 14:00N 29°48' W 094°00'3 6.3
2018-Jun-21 13:30N 29°50' W 093°57'4 8.4
2018-Jun-21 13:00N 29°53' W 093°55'4 8.7
2018-Jun-21 12:30N 29°57' W 093°52'3 7.0
2018-Jun-21 12:00N 29°59' W 093°49'4 8.3
2018-Jun-21 11:30N 30°01' W 093°45'3 6.9
2018-Jun-21 11:00N 30°04' W 093°41'3 6.7
2018-Jun-21 10:30N 30°04' W 093°38'3 6.0
2018-Jun-21 10:00N 30°04' W 093°34'3 5.2
2018-Jun-21 09:30N 30°04' W 093°31'3 5.4
2018-Jun-21 09:00N 30°04' W 093°28'3 5.5
2018-Jun-21 08:30N 30°04' W 093°25'3 5.3
2018-Jun-21 08:00N 30°04' W 093°22'2 4.1
2018-Jun-21 07:30N 30°05' W 093°20'2 4.6
2018-Jun-21 07:00N 30°07' W 093°20'3 6.5
2018-Jun-21 06:30N 30°10' W 093°19'3 6.8
2018-Jun-21 06:00N 30°12' W 093°16'2 4.1
2018-Jun-21 05:30N 30°14' W 093°15'1 2.1
2018-Jun-21 05:00N 30°15' W 093°14'1 2.7
2018-Jun-21 04:30N 30°15' W 093°12'0 0.3
2018-Jun-21 04:00N 30°15' W 093°12'0 0.0
2018-Jun-21 03:30N 30°15' W 093°12'0 0.0
2018-Jun-21 03:00N 30°15' W 093°12'0 0.0
2018-Jun-21 02:30N 30°15' W 093°12'0 0.0
2018-Jun-21 02:00N 30°15' W 093°12'0 0.0
2018-Jun-21 01:29N 30°15' W 093°12'0 0.0
2018-Jun-21 01:00N 30°15' W 093°12'0 0.0
2018-Jun-21 00:30N 30°15' W 093°12'0 0.0
2018-Jun-21 00:00N 30°15' W 093°12'0 0.0
2018-Jun-20 23:30N 30°15' W 093°12'0 0.0
2018-Jun-20 23:00N 30°15' W 093°12'0 0.0
2018-Jun-20 22:30N 30°15' W 093°12'0 0.0
2018-Jun-20 22:00N 30°15' W 093°12'0 0.0
2018-Jun-20 21:30N 30°15' W 093°12'0 0.0
2018-Jun-20 21:00N 30°15' W 093°12'0 0.0
2018-Jun-20 20:30N 30°15' W 093°12'0 0.0
2018-Jun-20 20:00N 30°15' W 093°12'0 0.0
2018-Jun-20 19:30N 30°15' W 093°12'0 0.0
2018-Jun-20 19:00N 30°15' W 093°12'0 0.0
2018-Jun-20 18:30N 30°15' W 093°12'0 0.0
2018-Jun-20 18:00N 30°15' W 093°12'0 0.0
2018-Jun-20 17:30N 30°15' W 093°12'0 0.0
2018-Jun-20 16:59N 30°15' W 093°12'0 0.0
2018-Jun-20 16:30N 30°15' W 093°12'0 0.0
2018-Jun-20 16:00N 30°15' W 093°12'0 0.0
2018-Jun-20 15:30N 30°15' W 093°12'0 0.0
2018-Jun-20 14:58N 30°15' W 093°12'0 0.0
2018-Jun-20 14:30N 30°15' W 093°12'0 0.0
2018-Jun-20 14:00N 30°15' W 093°12'0 0.0
2018-Jun-20 13:28N 30°15' W 093°12'0 0.0
2018-Jun-20 13:00N 30°15' W 093°12'0 0.0
2018-Jun-20 12:29N 30°15' W 093°12'0 0.0
2018-Jun-20 12:00N 30°15' W 093°12'0 0.0
2018-Jun-20 11:30N 30°15' W 093°12'0 0.0
2018-Jun-20 11:00N 30°15' W 093°12'0 0.0
2018-Jun-20 10:29N 30°15' W 093°12'0 0.0
2018-Jun-20 10:00N 30°15' W 093°12'0 0.0
2018-Jun-20 09:30N 30°15' W 093°12'0 0.0
2018-Jun-20 09:00N 30°15' W 093°12'0 0.0
2018-Jun-20 08:29N 30°15' W 093°12'0 0.0
2018-Jun-20 07:56N 30°15' W 093°12'0 0.0
2018-Jun-20 07:30N 30°15' W 093°12'0 0.0
2018-Jun-20 07:00N 30°15' W 093°12'0 0.0
2018-Jun-20 06:30N 30°15' W 093°12'0 0.0
2018-Jun-20 06:00N 30°15' W 093°12'0 0.0
2018-Jun-20 05:30N 30°15' W 093°12'0 0.0
2018-Jun-20 05:00N 30°15' W 093°12'0 0.1
2018-Jun-20 04:30N 30°15' W 093°12'1 2.4
2018-Jun-20 04:00N 30°15' W 093°14'3 5.0
2018-Jun-20 03:30N 30°13' W 093°15'3 6.8
2018-Jun-20 03:00N 30°11' W 093°18'3 6.8
2018-Jun-20 02:30N 30°08' W 093°20'3 6.8
2018-Jun-20 02:00N 30°05' W 093°20'4 7.3
2018-Jun-20 01:30N 30°04' W 093°24'4 7.9
2018-Jun-20 01:00N 30°04' W 093°29'4 7.9
2018-Jun-20 00:30N 30°04' W 093°34'1 2.6
2018-Jun-20 00:00N 30°04' W 093°35'4 7.8
2018-Jun-19 23:30N 30°04' W 093°40'4 7.4
2018-Jun-19 23:00N 30°03' W 093°44'4 7.1
2018-Jun-19 22:30N 29°60' W 093°46'4 7.4
2018-Jun-19 22:00N 29°59' W 093°50'1 2.1
2018-Jun-19 21:30N 29°58' W 093°51'3 6.2
2018-Jun-19 21:00N 29°60' W 093°55'0 0.7
2018-Jun-19 20:30N 29°60' W 093°55'0 0.0
2018-Jun-19 20:00N 29°60' W 093°55'0 0.0
2018-Jun-19 19:30N 29°60' W 093°55'0 0.0
2018-Jun-19 19:00N 29°60' W 093°55'0 0.0
2018-Jun-19 18:30N 29°60' W 093°55'0 0.0
2018-Jun-19 18:00N 29°60' W 093°55'0 0.0
2018-Jun-19 17:30N 29°60' W 093°55'0 0.0
2018-Jun-19 17:00N 29°60' W 093°55'0 0.0
2018-Jun-19 16:30N 29°60' W 093°55'0 0.0
2018-Jun-19 16:00N 29°60' W 093°55'0 0.0
2018-Jun-19 15:30N 29°60' W 093°55'0 0.0
2018-Jun-19 15:00N 29°60' W 093°55'1 2.6
2018-Jun-19 14:30N 29°59' W 093°54'3 5.6
2018-Jun-19 14:00N 29°58' W 093°51'0 0.0
2018-Jun-19 13:30N 29°58' W 093°51'0 0.0
2018-Jun-19 13:00N 29°58' W 093°51'0 0.0
2018-Jun-19 12:30N 29°58' W 093°51'0 0.0
2018-Jun-19 12:00N 29°58' W 093°51'0 0.0
2018-Jun-19 11:30N 29°58' W 093°51'0 0.0
2018-Jun-19 11:00N 29°58' W 093°51'0 0.0
2018-Jun-19 10:30N 29°58' W 093°51'0 0.0
2018-Jun-19 10:00N 29°58' W 093°51'1 2.2
2018-Jun-19 09:30N 29°59' W 093°52'3 5.9
2018-Jun-19 09:00N 29°60' W 093°55'1 1.2
2018-Jun-19 08:30N 29°59' W 093°56'3 5.7
2018-Jun-19 08:00N 30°01' W 093°59'0 0.9
2018-Jun-19 07:30N 30°01' W 093°59'0 0.0
2018-Jun-19 07:00N 30°01' W 093°59'0 0.0
2018-Jun-19 06:30N 30°01' W 093°59'0 0.0
2018-Jun-19 06:00N 30°01' W 093°59'0 0.0
2018-Jun-19 05:30N 30°01' W 093°59'0 0.0
2018-Jun-19 05:00N 30°01' W 093°59'0 0.0
2018-Jun-19 04:30N 30°01' W 093°59'0 0.0
2018-Jun-19 04:00N 30°01' W 093°59'0 0.0
2018-Jun-19 03:30N 30°01' W 093°59'0 0.0
2018-Jun-19 03:00N 30°01' W 093°59'0 0.0
2018-Jun-19 02:30N 30°01' W 093°59'0 0.0
2018-Jun-19 02:00N 30°01' W 093°59'0 0.0
2018-Jun-19 01:30N 30°01' W 093°59'0 0.0
2018-Jun-19 01:00N 30°01' W 093°59'0 0.0
2018-Jun-19 00:30N 30°01' W 093°59'0 0.9
2018-Jun-19 00:00N 30°01' W 093°59'0 0.2
2018-Jun-18 23:30N 30°01' W 093°59'0 0.1
2018-Jun-18 23:00N 30°01' W 093°59'0 0.0
2018-Jun-18 22:30N 30°01' W 093°59'0 0.0
2018-Jun-18 22:00N 30°01' W 093°59'0 0.0
2018-Jun-18 21:30N 30°01' W 093°59'0 0.0
2018-Jun-18 21:00N 30°01' W 093°59'0 0.0
2018-Jun-18 20:30N 30°01' W 093°59'0 0.0
2018-Jun-18 20:00N 30°01' W 093°59'0 0.0
2018-Jun-18 19:30N 30°01' W 093°59'0 0.0
2018-Jun-18 19:00N 30°01' W 093°59'0 0.0
2018-Jun-18 18:30N 30°01' W 093°59'0 0.0
2018-Jun-18 18:00N 30°01' W 093°59'0 0.0
2018-Jun-18 17:30N 30°01' W 093°59'0 0.0
2018-Jun-18 16:59N 30°01' W 093°59'0 0.0
2018-Jun-18 16:30N 30°01' W 093°59'0 0.0
2018-Jun-18 16:00N 30°01' W 093°59'0 0.0
2018-Jun-18 15:30N 30°01' W 093°59'0 0.0
2018-Jun-18 14:59N 30°01' W 093°59'0 0.0
2018-Jun-18 14:27N 30°01' W 093°59'0 0.0
2018-Jun-18 14:00N 30°01' W 093°59'0 0.0
2018-Jun-18 13:25N 30°01' W 093°59'0 0.0
2018-Jun-18 13:00N 30°01' W 093°59'0 0.0
2018-Jun-18 12:30N 30°01' W 093°59'0 0.0
2018-Jun-18 12:00N 30°01' W 093°59'0 0.9
2018-Jun-18 11:30N 30°01' W 093°59'2 4.7
2018-Jun-18 11:00N 29°60' W 093°57'3 6.2
2018-Jun-18 10:30N 29°59' W 093°53'2 4.5
2018-Jun-18 10:00N 29°57' W 093°52'3 5.8
2018-Jun-18 09:30N 29°55' W 093°53'3 5.4
2018-Jun-18 09:00N 29°53' W 093°55'3 5.1
2018-Jun-18 08:30N 29°50' W 093°57'2 4.6
2018-Jun-18 08:00N 29°49' W 093°59'3 5.5
2018-Jun-18 07:30N 29°47' W 094°01'3 5.5
2018-Jun-18 07:00N 29°45' W 094°04'3 5.5
2018-Jun-18 06:30N 29°44' W 094°06'3 5.5
2018-Jun-18 06:00N 29°42' W 094°09'3 5.1
2018-Jun-18 05:30N 29°41' W 094°12'2 4.6
2018-Jun-18 04:59N 29°40' W 094°14'2 5.0
2018-Jun-18 04:30N 29°39' W 094°16'2 4.9
2018-Jun-18 04:00N 29°38' W 094°19'5 4.6
2018-Jun-18 02:59N 29°36' W 094°24'18 5.5
2018-Jun-17 23:37N 29°26' W 094°42'1 6.2
2018-Jun-17 23:26N 29°26' W 094°43'2 5.0
2018-Jun-17 22:58N 29°24' W 094°45'3 6.1
2018-Jun-17 22:30N 29°22' W 094°47'3 5.9
2018-Jun-17 22:00N 29°19' W 094°47'1 2.8
2018-Jun-17 21:30N 29°19' W 094°49'0 0.1
2018-Jun-17 21:00N 29°18' W 094°49'0 0.0
2018-Jun-17 20:30N 29°18' W 094°49'0 0.0
2018-Jun-17 19:58N 29°18' W 094°49'0 0.0
2018-Jun-17 19:30N 29°18' W 094°49'0 0.0
2018-Jun-17 19:00N 29°18' W 094°49'0 0.0
2018-Jun-17 18:30N 29°18' W 094°49'0 0.0
2018-Jun-17 18:00N 29°18' W 094°49'0 0.2
2018-Jun-17 17:30N 29°18' W 094°49'0 0.0
2018-Jun-17 16:59N 29°18' W 094°49'0 0.0
2018-Jun-17 16:30N 29°18' W 094°49'0 0.0
2018-Jun-17 16:00N 29°18' W 094°49'0 0.0
2018-Jun-17 15:30N 29°18' W 094°49'0 0.0
2018-Jun-17 15:00N 29°18' W 094°49'0 0.0
2018-Jun-17 14:30N 29°18' W 094°49'0 0.0
2018-Jun-17 14:00N 29°18' W 094°49'0 0.0
2018-Jun-17 13:29N 29°18' W 094°49'0 0.0
2018-Jun-17 12:59N 29°18' W 094°49'0 0.0
2018-Jun-17 03:24N 29°18' W 094°49'0 0.0
2018-Jun-17 03:00N 29°18' W 094°49'0 0.0
2018-Jun-17 02:30N 29°18' W 094°49'0 0.0
2018-Jun-17 02:00N 29°18' W 094°49'0 0.0
2018-Jun-17 01:30N 29°18' W 094°49'0 0.0
2018-Jun-17 01:00N 29°18' W 094°49'0 0.0
2018-Jun-17 00:30N 29°18' W 094°49'0 0.0
2018-Jun-17 00:00N 29°18' W 094°49'0 0.0
2018-Jun-16 23:30N 29°18' W 094°49'0 0.4
2018-Jun-16 23:00N 29°19' W 094°49'0 0.4
2018-Jun-16 22:30N 29°18' W 094°49'0 0.3
2018-Jun-16 22:00N 29°19' W 094°49'0 0.2
2018-Jun-16 21:30N 29°18' W 094°49'0 0.1
2018-Jun-16 21:00N 29°18' W 094°49'0 0.2
2018-Jun-16 20:30N 29°18' W 094°49'0 0.0
2018-Jun-16 20:00N 29°18' W 094°49'0 0.0
2018-Jun-16 19:29N 29°18' W 094°49'0 0.0
2018-Jun-16 19:00N 29°18' W 094°49'0 0.0
2018-Jun-16 18:30N 29°18' W 094°49'0 0.0
2018-Jun-16 18:00N 29°18' W 094°49'0 0.0
2018-Jun-16 17:30N 29°18' W 094°49'1 2.5
2018-Jun-16 17:00N 29°19' W 094°48'1 1.7
2018-Jun-16 16:29N 29°19' W 094°47'0 0.0
2018-Jun-16 16:00N 29°19' W 094°47'0 0.0
2018-Jun-16 15:30N 29°19' W 094°47'1 2.7
2018-Jun-16 15:00N 29°19' W 094°48'1 1.4
2018-Jun-16 14:30N 29°19' W 094°49'3 5.5
2018-Jun-16 14:00N 29°20' W 094°47'2 4.5
2018-Jun-16 13:30N 29°23' W 094°47'8 5.1
2018-Jun-16 11:57N 29°28' W 094°40'10 5.2
2018-Jun-16 10:01N 29°32' W 094°29'2 5.8
2018-Jun-16 09:38N 29°34' W 094°28'1 6.0
2018-Jun-16 09:28N 29°34' W 094°27'2 4.7
2018-Jun-16 09:00N 29°35' W 094°25'2 3.9
2018-Jun-16 08:30N 29°36' W 094°23'1 2.6
2018-Jun-16 08:00N 29°37' W 094°22'3 5.4
2018-Jun-16 07:26N 29°38' W 094°18'2 5.4
2018-Jun-16 07:00N 29°39' W 094°16'3 5.3
2018-Jun-16 06:31N 29°40' W 094°13'3 5.3
2018-Jun-16 06:01N 29°41' W 094°10'3 5.1
2018-Jun-16 05:30N 29°43' W 094°08'3 5.3
2018-Jun-16 05:01N 29°44' W 094°06'3 5.1
2018-Jun-16 04:30N 29°46' W 094°03'2 5.0
2018-Jun-16 04:01N 29°47' W 094°01'3 5.3
2018-Jun-16 03:30N 29°49' W 093°59'1 2.1
2018-Jun-16 03:01N 29°50' W 093°58'2 4.6
2018-Jun-16 02:31N 29°48' W 093°60'3 6.8
2018-Jun-16 02:01N 29°46' W 094°03'3 6.5
2018-Jun-16 01:31N 29°44' W 094°06'3 6.3
2018-Jun-16 01:01N 29°42' W 094°08'3 6.0
2018-Jun-16 00:30N 29°41' W 094°12'3 6.2
2018-Jun-16 00:00N 29°40' W 094°15'3 6.0
2018-Jun-15 23:29N 29°38' W 094°18'3 6.0
2018-Jun-15 23:00N 29°37' W 094°21'3 5.7
2018-Jun-15 22:30N 29°36' W 094°24'1 2.8
2018-Jun-15 21:59N 29°36' W 094°22'3 5.8
2018-Jun-15 21:30N 29°37' W 094°20'3 5.7
2018-Jun-15 20:59N 29°39' W 094°17'3 5.8
2018-Jun-15 20:28N 29°40' W 094°13'3 5.9
2018-Jun-15 20:00N 29°41' W 094°11'3 5.7
2018-Jun-15 19:30N 29°43' W 094°08'3 6.0
2018-Jun-15 19:01N 29°44' W 094°05'3 5.8
2018-Jun-15 18:31N 29°46' W 094°02'3 5.8
2018-Jun-15 18:00N 29°48' W 094°00'2 4.2
2018-Jun-15 17:31N 29°49' W 093°58'3 6.3
2018-Jun-15 17:01N 29°52' W 093°56'3 6.5
2018-Jun-15 16:30N 29°55' W 093°54'3 6.6
2018-Jun-15 16:00N 29°57' W 093°52'1 1.9
2018-Jun-15 15:30N 29°58' W 093°51'3 6.4
2018-Jun-15 15:00N 29°59' W 093°55'1 1.3
2018-Jun-15 14:31N 29°60' W 093°55'3 6.0
2018-Jun-15 14:00N 29°59' W 093°52'4 7.7
2018-Jun-15 13:31N 29°55' W 093°53'4 8.4
2018-Jun-15 13:00N 29°52' W 093°56'0 0.0
2018-Jun-15 12:31N 29°52' W 093°56'0 0.0
2018-Jun-15 12:00N 29°52' W 093°56'0 0.0
2018-Jun-15 11:31N 29°52' W 093°56'0 0.0
2018-Jun-15 10:59N 29°52' W 093°56'0 0.0
2018-Jun-15 10:31N 29°52' W 093°56'0 0.0
2018-Jun-15 10:00N 29°52' W 093°56'0 0.0
2018-Jun-15 09:31N 29°52' W 093°56'0 0.0
2018-Jun-15 09:00N 29°52' W 093°56'0 0.0
2018-Jun-15 08:31N 29°52' W 093°56'0 0.0
2018-Jun-15 08:00N 29°52' W 093°56'0 0.0
2018-Jun-15 07:31N 29°52' W 093°56'0 0.0
2018-Jun-15 07:00N 29°52' W 093°56'0 0.0
2018-Jun-15 06:31N 29°52' W 093°56'0 0.0
2018-Jun-15 06:01N 29°52' W 093°56'0 0.1
2018-Jun-15 05:30N 29°52' W 093°56'2 3.2
2018-Jun-15 05:01N 29°50' W 093°57'2 3.0
2018-Jun-15 04:31N 29°49' W 093°58'0 0.0
2018-Jun-15 04:00N 29°49' W 093°58'0 0.0
2018-Jun-15 03:23N 29°49' W 093°58'0 0.0
2018-Jun-15 03:00N 29°49' W 093°58'0 0.0
2018-Jun-15 02:29N 29°49' W 093°58'0 0.1
2018-Jun-15 02:00N 29°49' W 093°58'1 2.1
2018-Jun-15 01:30N 29°49' W 093°59'3 6.0
2018-Jun-15 01:00N 29°47' W 094°02'3 5.8
2018-Jun-15 00:30N 29°45' W 094°05'3 5.7
2018-Jun-15 00:01N 29°43' W 094°07'3 5.5
2018-Jun-14 23:30N 29°41' W 094°10'3 5.4
2018-Jun-14 23:00N 29°41' W 094°13'3 5.4
2018-Jun-14 22:30N 29°39' W 094°15'3 5.2
2018-Jun-14 22:00N 29°38' W 094°18'3 5.3
2018-Jun-14 21:30N 29°37' W 094°21'7 4.6
2018-Jun-14 20:00N 29°34' W 094°28'8 5.3
2018-Jun-14 18:25N 29°29' W 094°36'2 5.0
2018-Jun-14 17:58N 29°28' W 094°38'4 5.5
2018-Jun-14 17:18N 29°26' W 094°42'2 6.1
2018-Jun-14 16:54N 29°25' W 094°44'2 5.5
2018-Jun-14 16:30N 29°23' W 094°46'  

Dump ship's entire track history